createdAt,value
2022-09-10T00:01:23.574Z,9.68
2022-09-10T00:03:51.070Z,9.90
2022-09-10T00:06:19.182Z,8.90
2022-09-10T00:08:46.910Z,7.25
2022-09-10T00:11:15.026Z,8.88
2022-09-10T00:13:42.306Z,8.43
2022-09-10T00:16:12.267Z,6.97
2022-09-10T00:18:39.705Z,7.60
2022-09-10T00:21:10.313Z,6.05
2022-09-10T00:23:37.691Z,5.57
2022-09-10T00:26:25.991Z,6.15
2022-09-10T00:28:54.544Z,10.10
2022-09-10T00:31:22.792Z,7.25
2022-09-10T00:33:50.870Z,11.70
2022-09-10T00:36:23.978Z,8.57
2022-09-10T00:38:52.190Z,4.60
2022-09-10T00:41:21.481Z,8.07
2022-09-10T00:43:48.811Z,10.90
2022-09-10T00:46:24.286Z,13.45
2022-09-10T00:48:52.781Z,21.38
2022-09-10T00:51:19.928Z,21.02
2022-09-10T00:53:46.768Z,17.87
2022-09-10T00:56:14.347Z,14.73
2022-09-10T00:58:43.291Z,18.63
2022-09-10T01:01:10.284Z,14.35
2022-09-10T01:03:37.745Z,13.27
2022-09-10T01:06:05.444Z,17.77
2022-09-10T01:08:32.060Z,16.05
2022-09-10T01:11:17.285Z,22.35
2022-09-10T01:14:01.505Z,11.25
2022-09-10T01:16:27.984Z,13.32
2022-09-10T01:19:13.243Z,11.00
2022-09-10T01:21:52.589Z,9.75
2022-09-10T01:24:51.111Z,10.93
2022-09-10T01:27:23.459Z,12.23
2022-09-10T01:29:59.080Z,6.75
2022-09-10T01:32:35.314Z,9.10
2022-09-10T01:35:14.957Z,8.70
2022-09-10T01:37:47.434Z,10.95
2022-09-10T01:40:15.448Z,8.80
2022-09-10T01:42:42.422Z,10.80
2022-09-10T01:45:13.501Z,18.60
2022-09-10T01:47:40.168Z,12.15
2022-09-10T01:50:51.553Z,10.68
2022-09-10T01:53:39.799Z,12.48
2022-09-10T01:56:24.736Z,17.25
2022-09-10T01:58:54.659Z,10.03
2022-09-10T02:01:28.581Z,12.90
2022-09-10T02:04:04.439Z,9.23
2022-09-10T02:06:36.377Z,15.93
2022-09-10T02:09:03.446Z,10.50
2022-09-10T02:11:31.507Z,8.23
2022-09-10T02:13:59.409Z,10.60
2022-09-10T02:16:35.903Z,13.45
2022-09-10T02:19:04.058Z,13.05
2022-09-10T02:21:32.102Z,18.75
2022-09-10T02:24:05.931Z,13.63
2022-09-10T02:26:40.029Z,11.75
2022-09-10T02:29:07.671Z,13.50
2022-09-10T02:31:34.448Z,7.53
2022-09-10T02:34:03.230Z,13.00
2022-09-10T02:36:31.741Z,9.77
2022-09-10T02:38:59.400Z,10.50
2022-09-10T02:41:26.653Z,12.90
2022-09-10T02:43:53.306Z,17.75
2022-09-10T02:46:20.268Z,14.63
2022-09-10T02:48:46.943Z,20.30
2022-09-10T02:51:13.467Z,16.58
2022-09-10T02:53:40.141Z,11.68
2022-09-10T02:56:07.836Z,11.75
2022-09-10T02:58:34.513Z,16.73
2022-09-10T03:01:15.021Z,15.73
2022-09-10T03:03:41.852Z,20.27
2022-09-10T03:06:09.135Z,17.77
2022-09-10T03:08:35.977Z,18.35
2022-09-10T03:11:03.347Z,16.35
2022-09-10T03:13:29.814Z,16.03
2022-09-10T03:15:58.902Z,15.20
2022-09-10T03:18:27.815Z,15.25
2022-09-10T03:20:54.316Z,13.10
2022-09-10T03:23:20.843Z,17.60
2022-09-10T03:25:49.762Z,19.13
2022-09-10T03:28:21.785Z,13.57
2022-09-10T03:30:48.401Z,16.85
2022-09-10T03:33:15.152Z,16.85
2022-09-10T03:35:41.689Z,16.63
2022-09-10T03:38:08.156Z,18.20
2022-09-10T03:40:34.710Z,18.42
2022-09-10T03:43:02.913Z,18.00
2022-09-10T03:45:29.403Z,16.25
2022-09-10T03:47:55.962Z,13.32
2022-09-10T03:50:22.648Z,14.97
2022-09-10T03:52:50.162Z,14.88
2022-09-10T03:55:18.140Z,17.50
2022-09-10T03:57:45.713Z,14.93
2022-09-10T04:00:12.615Z,20.48
2022-09-10T04:02:41.494Z,19.67
2022-09-10T04:05:08.946Z,18.15
2022-09-10T04:07:36.693Z,13.45
2022-09-10T04:10:04.019Z,21.15
2022-09-10T04:12:30.880Z,12.77
2022-09-10T04:14:57.573Z,23.50
2022-09-10T04:17:25.550Z,19.77
2022-09-10T04:19:52.072Z,15.23
2022-09-10T04:22:18.584Z,14.13
2022-09-10T04:24:45.280Z,16.52
2022-09-10T04:27:11.949Z,17.00
2022-09-10T04:29:38.731Z,14.05
2022-09-10T04:32:05.785Z,16.00
2022-09-10T04:34:32.476Z,16.63
2022-09-10T04:36:58.949Z,13.95
2022-09-10T04:39:25.445Z,15.90
2022-09-10T04:41:51.957Z,11.30
2022-09-10T04:44:20.034Z,11.85
2022-09-10T04:46:47.822Z,15.52
2022-09-10T04:49:14.441Z,11.10
2022-09-10T04:51:41.160Z,19.37
2022-09-10T04:54:07.840Z,15.25
2022-09-10T04:56:34.715Z,17.27
2022-09-10T04:59:04.416Z,15.23
2022-09-10T05:01:31.335Z,13.18
2022-09-10T05:03:58.023Z,13.60
2022-09-10T05:06:24.765Z,14.55
2022-09-10T05:08:51.506Z,15.85
2022-09-10T05:11:20.039Z,12.85
2022-09-10T05:13:46.818Z,18.88
2022-09-10T05:16:14.045Z,18.70
2022-09-10T05:18:40.752Z,18.55
2022-09-10T05:21:07.453Z,15.23
2022-09-10T05:23:34.008Z,14.35
2022-09-10T05:26:00.570Z,14.57
2022-09-10T05:28:27.158Z,13.27
2022-09-10T05:30:53.660Z,13.50
2022-09-10T05:33:20.190Z,12.25
2022-09-10T05:35:49.174Z,15.90
2022-09-10T05:38:15.639Z,15.07
2022-09-10T05:40:42.954Z,13.13
2022-09-10T05:43:10.349Z,11.60
2022-09-10T05:45:37.371Z,13.15
2022-09-10T05:48:04.303Z,13.63
2022-09-10T05:50:31.637Z,13.27
2022-09-10T05:52:58.101Z,14.53
2022-09-10T05:55:25.142Z,14.02
2022-09-10T05:57:51.809Z,13.43
2022-09-10T06:00:18.831Z,13.35
2022-09-10T06:02:45.985Z,12.20
2022-09-10T06:05:13.000Z,14.17
2022-09-10T06:07:40.071Z,11.73
2022-09-10T06:10:07.880Z,12.18
2022-09-10T06:12:34.455Z,11.82
2022-09-10T06:15:01.028Z,11.32
2022-09-10T06:17:29.942Z,10.93
2022-09-10T06:19:56.480Z,13.45
2022-09-10T06:22:23.048Z,11.90
2022-09-10T06:27:15.519Z,11.67
2022-09-10T06:29:42.000Z,10.48
2022-09-10T06:32:09.932Z,11.63
2022-09-10T06:34:37.818Z,12.07
2022-09-10T06:37:05.290Z,12.65
2022-09-10T06:39:32.377Z,10.98
2022-09-10T06:41:59.706Z,15.32
2022-09-10T06:44:26.539Z,14.13
2022-09-10T06:47:32.483Z,12.40
2022-09-10T06:49:41.413Z,13.40
2022-09-10T06:52:08.612Z,14.32
2022-09-10T06:54:35.822Z,16.95
2022-09-10T06:57:04.494Z,15.03
2022-09-10T06:59:32.158Z,14.65
2022-09-10T07:01:58.686Z,13.75
2022-09-10T07:04:25.190Z,14.32
2022-09-10T07:06:51.868Z,19.83
2022-09-10T07:09:18.378Z,15.03
2022-09-10T07:11:45.084Z,18.63
2022-09-10T07:14:12.672Z,17.75
2022-09-10T07:16:41.953Z,16.00
2022-09-10T07:19:13.580Z,14.77
2022-09-10T07:21:40.245Z,14.87
2022-09-10T07:24:07.063Z,16.75
2022-09-10T07:26:34.082Z,15.45
2022-09-10T07:29:00.619Z,17.05
2022-09-10T07:31:30.105Z,15.00
2022-09-10T07:34:01.848Z,19.83
2022-09-10T07:36:30.017Z,15.70
2022-09-10T07:38:58.856Z,19.48
2022-09-10T07:41:29.520Z,14.40
2022-09-10T07:43:56.533Z,15.05
2022-09-10T07:46:25.576Z,13.33
2022-09-10T07:49:00.853Z,13.77
2022-09-10T07:51:33.178Z,15.02
2022-09-10T07:54:00.478Z,13.73
2022-09-10T08:35:59.738Z,13.50
2022-09-10T08:38:30.715Z,15.13
2022-09-10T08:41:00.682Z,13.40
2022-09-10T08:43:35.395Z,12.73
2022-09-10T08:46:06.176Z,20.60
2022-09-10T08:48:37.594Z,15.00
2022-09-10T08:51:11.054Z,12.32
2022-09-10T08:53:55.879Z,13.63
2022-09-10T08:56:23.715Z,12.43
2022-09-10T08:59:05.720Z,13.18
2022-09-10T09:02:01.986Z,13.27
2022-09-10T09:04:40.307Z,19.00
2022-09-10T09:07:15.042Z,12.07
2022-09-10T09:09:42.037Z,13.20
2022-09-10T09:12:37.861Z,12.45
2022-09-10T09:15:29.883Z,11.57
2022-09-10T09:18:11.036Z,16.85
2022-09-10T09:20:47.129Z,10.80
2022-09-10T09:23:35.422Z,10.88
2022-09-10T09:26:09.906Z,12.52
2022-09-10T09:28:48.443Z,12.48
2022-09-10T09:31:20.594Z,12.90
2022-09-10T09:33:51.483Z,11.33
2022-09-10T09:36:23.668Z,11.43
2022-09-10T09:38:50.948Z,11.93
2022-09-10T09:41:27.134Z,8.90
2022-09-10T09:44:06.814Z,11.98
2022-09-10T09:46:34.529Z,9.60
2022-09-10T09:49:02.388Z,8.40
2022-09-10T09:51:35.808Z,8.02
2022-09-10T09:56:59.570Z,8.80
2022-09-10T09:59:35.452Z,9.50
2022-09-10T10:02:19.129Z,9.18
2022-09-10T10:05:09.291Z,10.10
2022-09-10T10:07:36.446Z,9.00
2022-09-10T10:10:07.828Z,10.07
2022-09-10T10:12:49.207Z,11.37
2022-09-10T10:15:37.249Z,8.20
2022-09-10T10:18:28.693Z,7.75
2022-09-10T10:21:31.962Z,7.68
2022-09-10T10:23:59.124Z,6.82
2022-09-10T10:26:30.902Z,7.90
2022-09-10T10:29:06.689Z,5.50
2022-09-10T10:31:45.723Z,4.75
2022-09-10T10:34:17.266Z,3.60
2022-09-10T10:36:57.333Z,3.10
2022-09-10T10:40:01.277Z,3.10
2022-09-10T10:42:54.765Z,2.65
2022-09-10T10:46:01.227Z,2.80
2022-09-10T10:48:39.563Z,4.35
2022-09-10T10:51:16.571Z,3.42
2022-09-10T10:54:24.863Z,3.83
2022-09-10T10:57:12.333Z,3.63
2022-09-10T11:00:01.237Z,3.70
2022-09-10T11:02:54.573Z,4.25
2022-09-10T11:05:45.265Z,4.30
2022-09-10T11:08:20.258Z,2.07
2022-09-10T11:10:54.633Z,3.72
2022-09-10T11:13:50.501Z,2.60
2022-09-10T11:16:26.904Z,2.50
2022-09-10T11:19:06.003Z,2.25
2022-09-10T11:21:43.197Z,2.60
2022-09-10T11:24:20.189Z,2.10
2022-09-10T11:26:56.615Z,3.13
2022-09-10T11:29:47.285Z,2.33
2022-09-10T11:32:32.596Z,2.42
2022-09-10T11:35:31.198Z,2.73
2022-09-10T11:38:26.657Z,4.88
2022-09-10T11:41:16.330Z,2.55
2022-09-10T11:43:52.901Z,2.97
2022-09-10T11:46:39.048Z,2.78
2022-09-10T11:49:20.867Z,1.87
2022-09-10T11:51:48.142Z,2.72
2022-09-10T11:54:18.068Z,1.50
2022-09-10T11:56:50.236Z,1.90
2022-09-10T11:59:29.090Z,2.00
2022-09-10T12:02:32.748Z,3.10
2022-09-10T12:05:31.301Z,3.65
2022-09-10T12:08:32.720Z,2.20
2022-09-10T12:11:15.223Z,3.15
2022-09-10T12:13:44.674Z,2.70
2022-09-10T12:16:43.848Z,2.27
2022-09-10T12:19:26.776Z,2.15
2022-09-10T12:21:59.710Z,3.58
2022-09-10T12:24:43.175Z,1.70
2022-09-10T12:27:18.539Z,3.38
2022-09-10T12:29:45.130Z,1.90
2022-09-10T12:32:37.847Z,2.33
2022-09-10T12:35:32.740Z,2.08
2022-09-10T12:38:36.880Z,1.95
2022-09-10T12:41:08.888Z,1.70
2022-09-10T12:43:41.803Z,2.07
2022-09-10T12:46:16.714Z,1.77
2022-09-10T12:48:51.234Z,2.42
2022-09-10T12:51:25.475Z,2.45
2022-09-10T12:54:27.303Z,1.70
2022-09-10T12:57:33.682Z,4.03
2022-09-10T13:00:19.619Z,1.65
2022-09-10T13:02:54.560Z,4.93
2022-09-10T13:06:09.716Z,5.63
2022-09-10T13:08:45.714Z,2.47
2022-09-10T13:11:23.864Z,3.70
2022-09-10T13:14:02.045Z,3.25
2022-09-10T13:16:30.628Z,2.65
2022-09-10T13:19:19.998Z,3.03
2022-09-10T13:21:48.561Z,3.75
2022-09-10T13:24:36.193Z,4.37
2022-09-10T13:27:34.569Z,2.50
2022-09-10T13:30:23.295Z,3.47
2022-09-10T13:33:04.147Z,2.50
2022-09-10T13:36:12.335Z,4.97
2022-09-10T13:39:09.928Z,2.83
2022-09-10T13:42:22.295Z,5.50
2022-09-10T13:45:10.001Z,3.45
2022-09-10T13:47:47.403Z,4.00
2022-09-10T13:50:23.734Z,5.95
2022-09-10T13:52:55.043Z,3.37
2022-09-10T13:55:31.157Z,3.33
2022-09-10T13:58:04.660Z,4.95
2022-09-10T14:00:40.316Z,4.78
2022-09-10T14:03:22.807Z,5.95
2022-09-10T14:05:54.532Z,4.43
2022-09-10T14:08:38.410Z,5.30
2022-09-10T14:11:14.632Z,4.70
2022-09-10T14:13:44.284Z,5.15
2022-09-10T14:16:13.631Z,3.40
2022-09-10T14:18:45.199Z,4.97
2022-09-10T14:21:14.114Z,3.15
2022-09-10T14:23:47.840Z,3.15
2022-09-10T14:26:24.876Z,4.03
2022-09-10T14:29:04.939Z,4.93
2022-09-10T14:31:36.401Z,3.03
2022-09-10T14:34:26.990Z,2.65
2022-09-10T14:36:53.615Z,3.80
2022-09-10T14:39:22.199Z,4.22
2022-09-10T14:41:49.646Z,3.00
2022-09-10T14:44:22.298Z,2.90
2022-09-10T14:47:14.796Z,2.92
2022-09-10T14:49:47.456Z,2.08
2022-09-10T14:52:14.862Z,3.30
2022-09-10T14:54:43.390Z,3.30
2022-09-10T14:57:15.473Z,5.90
2022-09-10T14:59:45.877Z,5.63
2022-09-10T15:02:17.274Z,3.30
2022-09-10T15:04:44.423Z,6.28
2022-09-10T15:07:11.862Z,6.05
2022-09-10T15:09:38.550Z,3.30
2022-09-10T15:12:16.667Z,2.72
2022-09-10T15:14:43.299Z,4.70
2022-09-10T15:17:14.108Z,2.70
2022-09-10T15:19:41.024Z,3.80
2022-09-10T15:22:07.673Z,3.63
2022-09-10T15:24:52.487Z,3.35
2022-09-10T15:27:22.537Z,3.67
2022-09-10T15:29:49.261Z,3.17
2022-09-10T15:32:15.835Z,4.40
2022-09-10T15:34:46.768Z,4.97
2022-09-10T15:37:13.373Z,3.78
2022-09-10T15:39:41.719Z,6.18
2022-09-10T15:42:08.325Z,2.97
2022-09-10T15:44:35.115Z,2.38
2022-09-10T15:47:02.287Z,2.43
2022-09-10T15:49:29.787Z,2.03
2022-09-10T15:51:57.229Z,2.72
2022-09-10T15:54:24.100Z,2.30
2022-09-10T15:56:51.206Z,3.53
2022-09-10T15:59:17.896Z,4.13
2022-09-10T16:01:44.404Z,3.25
2022-09-10T16:04:10.965Z,2.85
2022-09-10T16:06:40.241Z,2.90
2022-09-10T16:09:10.421Z,1.92
2022-09-10T16:11:39.544Z,4.43
2022-09-10T16:14:07.916Z,3.03
2022-09-10T16:16:37.322Z,2.92
2022-09-10T16:19:05.470Z,1.88
2022-09-10T16:21:35.021Z,2.15
2022-09-10T16:24:02.492Z,2.10
2022-09-10T16:26:34.597Z,2.35
2022-09-10T16:29:04.026Z,2.55
2022-09-10T16:31:39.076Z,3.65
2022-09-10T16:34:08.797Z,3.10
2022-09-10T16:36:37.536Z,2.10
2022-09-10T16:39:07.346Z,4.63
2022-09-10T16:41:34.008Z,2.67
2022-09-10T16:44:01.103Z,3.92
2022-09-10T16:46:28.377Z,5.40
2022-09-10T16:48:56.344Z,2.43
2022-09-10T16:51:25.548Z,2.88
2022-09-10T16:53:56.831Z,2.85
2022-09-10T16:56:25.419Z,3.50
2022-09-10T16:58:52.026Z,4.90
2022-09-10T17:01:21.319Z,4.03
2022-09-10T17:03:52.383Z,3.75
2022-09-10T17:06:24.553Z,6.78
2022-09-10T17:08:53.651Z,5.65
2022-09-10T17:11:21.060Z,5.40
2022-09-10T17:13:48.256Z,11.40
2022-09-10T17:16:21.113Z,5.43
2022-09-10T17:18:54.314Z,6.65
2022-09-10T17:21:20.924Z,6.55
2022-09-10T17:23:47.485Z,5.22
2022-09-10T17:26:14.119Z,4.47
2022-09-10T17:28:41.022Z,4.35
2022-09-10T17:31:07.755Z,8.15
2022-09-10T17:33:34.322Z,5.88
2022-09-10T17:36:03.297Z,9.18
2022-09-10T17:38:33.436Z,4.83
2022-09-10T17:41:03.995Z,7.07
2022-09-10T17:43:37.287Z,6.45
2022-09-10T17:46:08.109Z,7.47
2022-09-10T17:48:35.834Z,4.75
2022-09-10T17:51:02.580Z,5.57
2022-09-10T17:53:29.141Z,7.57
2022-09-10T17:56:01.922Z,5.05
2022-09-10T17:58:28.459Z,6.07
2022-09-10T18:00:58.631Z,6.15
2022-09-10T18:09:16.932Z,9.60
2022-09-10T18:11:44.081Z,9.48
2022-09-10T18:14:18.824Z,4.75
2022-09-10T18:16:46.334Z,6.80
2022-09-10T18:19:16.059Z,10.32
2022-09-10T18:21:45.262Z,8.07
2022-09-10T18:24:17.228Z,5.05
2022-09-10T18:26:47.140Z,9.38
2022-09-10T18:29:23.859Z,5.23
2022-09-10T18:31:56.071Z,5.60
2022-09-10T18:34:27.929Z,6.00
2022-09-10T18:36:59.763Z,7.32
2022-09-10T18:39:27.961Z,6.72
2022-09-10T18:41:55.529Z,5.23
2022-09-10T18:44:24.956Z,7.13
2022-09-10T18:46:52.951Z,8.93
2022-09-10T18:49:21.710Z,7.38
2022-09-10T18:51:52.083Z,6.38
2022-09-10T18:54:20.303Z,5.53
2022-09-10T18:56:48.647Z,5.72
2022-09-10T18:59:20.299Z,5.75
2022-09-10T19:01:48.385Z,7.68
2022-09-10T19:04:17.869Z,6.95
2022-09-10T19:06:46.966Z,5.77
2022-09-10T19:09:18.328Z,8.77
2022-09-10T19:11:48.158Z,5.40
2022-09-10T19:14:18.193Z,6.68
2022-09-10T19:16:46.997Z,6.38
2022-09-10T19:19:18.835Z,7.10
2022-09-10T19:21:47.635Z,6.32
2022-09-10T19:24:15.835Z,10.30
2022-09-10T19:26:42.881Z,8.55
2022-09-10T19:29:17.325Z,9.50
2022-09-10T19:31:45.739Z,7.60
2022-09-10T19:34:15.526Z,8.57
2022-09-10T19:36:43.477Z,8.07
2022-09-10T19:39:13.093Z,7.03
2022-09-10T19:41:41.806Z,7.03
2022-09-10T19:44:09.897Z,7.03
2022-09-10T19:46:37.051Z,6.32
2022-09-10T19:49:05.225Z,8.38
2022-09-10T19:51:34.669Z,7.80
2022-09-10T19:54:02.145Z,6.95
2022-09-10T19:56:33.169Z,6.73
2022-09-10T19:59:00.387Z,11.35
2022-09-10T20:01:32.822Z,7.38
2022-09-10T20:04:05.895Z,9.02
2022-09-10T20:06:34.192Z,8.05
2022-09-10T20:09:02.406Z,7.53
2022-09-10T20:11:32.443Z,8.30
2022-09-10T20:14:08.843Z,8.40
2022-09-10T20:16:39.443Z,8.38
2022-09-10T20:19:06.796Z,9.10
2022-09-10T20:21:34.057Z,7.57
2022-09-10T20:24:00.575Z,9.65
2022-09-10T20:26:31.984Z,10.18
2022-09-10T20:29:01.359Z,8.43
2022-09-10T20:31:31.504Z,7.85
2022-09-10T20:33:59.997Z,7.63
2022-09-10T20:36:28.395Z,10.98
2022-09-10T20:38:56.256Z,7.32
2022-09-10T20:41:24.444Z,7.93
2022-09-10T20:43:53.126Z,8.02
2022-09-10T20:46:22.526Z,8.20
2022-09-10T20:48:51.020Z,11.02
2022-09-10T20:51:19.192Z,9.30
2022-09-10T20:53:46.687Z,7.15
2022-09-10T20:56:15.526Z,9.18
2022-09-10T20:58:42.584Z,8.07
2022-09-10T21:01:14.811Z,11.35
2022-09-10T21:03:41.423Z,9.88
2022-09-10T21:06:09.519Z,8.27
2022-09-10T21:08:37.254Z,12.75
2022-09-10T21:11:09.731Z,8.87
2022-09-10T21:13:37.880Z,9.48
2022-09-10T21:16:17.266Z,12.05
2022-09-10T21:18:53.748Z,8.00
2022-09-10T21:21:25.563Z,8.75
2022-09-10T21:23:56.670Z,16.93
2022-09-10T21:26:25.839Z,8.82
2022-09-10T21:28:56.060Z,10.63
2022-09-10T21:31:24.055Z,10.07
2022-09-10T21:33:51.218Z,17.85
2022-09-10T21:36:19.967Z,11.77
2022-09-10T21:38:48.240Z,9.13
2022-09-10T21:41:16.867Z,11.20
2022-09-10T21:43:47.399Z,11.88
2022-09-10T21:46:14.713Z,11.75
2022-09-10T21:48:42.444Z,11.93
2022-09-10T21:51:17.036Z,12.00
2022-09-10T21:53:44.496Z,12.82
2022-09-10T21:56:14.982Z,13.00
2022-09-10T21:58:43.142Z,11.05
2022-09-10T22:01:12.244Z,10.27
2022-09-10T22:03:39.878Z,13.07
2022-09-10T22:06:15.075Z,10.88
2022-09-10T22:08:44.120Z,16.13
2022-09-10T22:11:15.465Z,11.43
2022-09-10T22:13:43.543Z,12.73
2022-09-10T22:16:14.412Z,11.20
2022-09-10T22:18:41.684Z,16.92
2022-09-10T22:21:09.216Z,11.48
2022-09-10T22:28:46.609Z,11.57
2022-09-10T22:31:17.299Z,14.27
2022-09-10T22:33:46.055Z,12.65
2022-09-10T22:36:20.983Z,14.48
2022-09-10T22:38:52.322Z,11.30
2022-09-10T22:41:19.589Z,15.77
2022-09-10T22:43:46.404Z,14.27
2022-09-10T22:46:13.401Z,12.80
2022-09-10T22:48:42.919Z,18.08
2022-09-10T22:51:12.902Z,12.70
2022-09-10T22:53:41.079Z,15.27
2022-09-10T22:56:09.171Z,14.15
2022-09-10T22:58:36.397Z,14.27
2022-09-10T23:01:06.873Z,12.27
2022-09-10T23:03:34.235Z,12.13
2022-09-10T23:06:06.349Z,13.27
2022-09-10T23:08:36.852Z,13.18
2022-09-10T23:11:26.126Z,13.40
2022-09-10T23:13:57.392Z,19.50
2022-09-10T23:16:28.967Z,18.93
2022-09-10T23:18:57.016Z,14.02
2022-09-10T23:21:25.967Z,17.42
2022-09-10T23:23:56.005Z,18.77
2022-09-10T23:26:24.419Z,17.40
2022-09-10T23:28:51.527Z,15.07
2022-09-10T23:31:22.588Z,17.67
2022-09-10T23:33:58.162Z,14.38
2022-09-10T23:36:31.412Z,13.85
2022-09-10T23:38:58.785Z,16.63
2022-09-10T23:41:26.022Z,17.40
2022-09-10T23:43:52.687Z,19.27
2022-09-10T23:46:19.228Z,13.68
2022-09-10T23:48:46.403Z,17.02
2022-09-10T23:51:15.721Z,16.98
2022-09-10T23:53:45.422Z,20.40
2022-09-10T23:56:15.991Z,20.20
2022-09-10T23:58:42.695Z,20.35
